Pagrindinis puslapis
METAR-TAF:

METAR-TAF

Oro uostai :

Clark's Point, Aliaska, Jungtinės Amerikos Valstijos

platuma: 58-50-01N, ilguma: 158-31-46W, Aukštis: 24 m

Dabartinis oras

Ataskaita buvo paskelbta 36 minutes, ne 19:56 UTC
Vėjas 6 kt iš Rytų/Šiaurės Rytų
Temperatūra 0°C
Drėgmė 80%
Slėgis 1021 hPa
Matomumas: 16.1 km
Apsiniaukę ne aukštis 3400 ft

METAR: PFCL 281956Z AUTO 07006KT 10SM OVC034 00/M03 A3015 RMK AO2 SLP203 T00001033 FZRANO TSNO

Laikas: 12:32 (20:32 UTC)


TAF: trūkstamas

Orai ataskaitas ir orų prognozės (METAR, TAF).

turimą stotys yra geltonos ir raudonos taškus žemėlapyje.

Perkelti pele per norėdami pamatyti stoties vardą.

Tada spustelėkite, norėdami matyti oro stebėjimo ir prognozės.

Norėdami pakeisti žemėlapį: spustelėkite ant žalios mygtukų su juodo kryžiaus žemyn,; žalią mygtuką su brūkšneliu, jei norite nutolinti; arba žalių rodyklių gretimoms žemėlapius.


METAR-TAF: